sensor_id;sensor_type;location;lat;lon;timestamp;temperature;humidity
11304;DHT22;5707;49.588;12.148;2023-08-17T00:00:14;16.10;99.90
11304;DHT22;5707;49.588;12.148;2023-08-17T00:02:41;16.00;99.90
11304;DHT22;5707;49.588;12.148;2023-08-17T00:05:06;15.90;99.90
11304;DHT22;5707;49.588;12.148;2023-08-17T00:07:33;16.00;99.90
11304;DHT22;5707;49.588;12.148;2023-08-17T00:09:58;16.00;99.90
11304;DHT22;5707;49.588;12.148;2023-08-17T00:12:25;16.00;99.90
11304;DHT22;5707;49.588;12.148;2023-08-17T00:14:51;16.00;99.90
11304;DHT22;5707;49.588;12.148;2023-08-17T00:17:17;16.10;99.90
11304;DHT22;5707;49.588;12.148;2023-08-17T00:19:43;16.00;99.90
11304;DHT22;5707;49.588;12.148;2023-08-17T00:22:08;15.90;99.90
11304;DHT22;5707;49.588;12.148;2023-08-17T00:24:34;15.80;99.90
11304;DHT22;5707;49.588;12.148;2023-08-17T00:27:00;15.80;99.90
11304;DHT22;5707;49.588;12.148;2023-08-17T00:29:25;15.80;99.90
11304;DHT22;5707;49.588;12.148;2023-08-17T00:31:51;15.80;99.90
11304;DHT22;5707;49.588;12.148;2023-08-17T00:34:17;15.90;99.90
11304;DHT22;5707;49.588;12.148;2023-08-17T00:36:43;16.00;99.90
11304;DHT22;5707;49.588;12.148;2023-08-17T00:39:09;16.10;99.90
11304;DHT22;5707;49.588;12.148;2023-08-17T00:41:34;16.10;99.90
11304;DHT22;5707;49.588;12.148;2023-08-17T00:44:00;16.10;99.90
11304;DHT22;5707;49.588;12.148;2023-08-17T00:46:26;16.10;99.90
11304;DHT22;5707;49.588;12.148;2023-08-17T00:48:54;16.10;99.90
11304;DHT22;5707;49.588;12.148;2023-08-17T00:51:24;16.10;99.90
11304;DHT22;5707;49.588;12.148;2023-08-17T00:53:56;16.10;99.90
11304;DHT22;5707;49.588;12.148;2023-08-17T00:56:22;16.20;99.90
11304;DHT22;5707;49.588;12.148;2023-08-17T00:58:49;16.20;99.90
11304;DHT22;5707;49.588;12.148;2023-08-17T01:01:15;16.30;99.90
11304;DHT22;5707;49.588;12.148;2023-08-17T01:03:40;16.20;99.90
11304;DHT22;5707;49.588;12.148;2023-08-17T01:06:07;16.30;99.90
11304;DHT22;5707;49.588;12.148;2023-08-17T01:08:33;16.20;99.90
11304;DHT22;5707;49.588;12.148;2023-08-17T01:11:30;16.20;99.90
11304;DHT22;5707;49.588;12.148;2023-08-17T01:14:02;16.10;99.90
11304;DHT22;5707;49.588;12.148;2023-08-17T01:16:48;16.10;99.90
11304;DHT22;5707;49.588;12.148;2023-08-17T01:19:26;16.10;99.90
11304;DHT22;5707;49.588;12.148;2023-08-17T01:21:54;16.00;99.90
11304;DHT22;5707;49.588;12.148;2023-08-17T01:24:22;16.00;99.90
11304;DHT22;5707;49.588;12.148;2023-08-17T01:26:47;16.10;99.90
11304;DHT22;5707;49.588;12.148;2023-08-17T01:29:13;16.00;99.90
11304;DHT22;5707;49.588;12.148;2023-08-17T01:34:24;16.10;99.90
11304;DHT22;5707;49.588;12.148;2023-08-17T01:36:54;16.10;99.90
11304;DHT22;5707;49.588;12.148;2023-08-17T01:39:26;16.10;99.90
11304;DHT22;5707;49.588;12.148;2023-08-17T01:41:52;16.10;99.90
11304;DHT22;5707;49.588;12.148;2023-08-17T01:44:21;16.00;99.90
11304;DHT22;5707;49.588;12.148;2023-08-17T01:46:46;16.00;99.90
11304;DHT22;5707;49.588;12.148;2023-08-17T01:49:12;16.10;99.90
11304;DHT22;5707;49.588;12.148;2023-08-17T01:51:38;16.10;99.90
11304;DHT22;5707;49.588;12.148;2023-08-17T01:54:03;16.00;99.90
11304;DHT22;5707;49.588;12.148;2023-08-17T01:56:29;16.00;99.90
11304;DHT22;5707;49.588;12.148;2023-08-17T01:58:54;16.00;99.90
11304;DHT22;5707;49.588;12.148;2023-08-17T02:01:20;15.90;99.90
11304;DHT22;5707;49.588;12.148;2023-08-17T02:03:45;15.90;99.90
11304;DHT22;5707;49.588;12.148;2023-08-17T02:06:11;15.80;99.90
11304;DHT22;5707;49.588;12.148;2023-08-17T02:08:37;15.70;99.90
11304;DHT22;5707;49.588;12.148;2023-08-17T02:11:03;15.70;99.90
11304;DHT22;5707;49.588;12.148;2023-08-17T02:13:29;15.70;99.90
11304;DHT22;5707;49.588;12.148;2023-08-17T02:15:54;15.70;99.90
11304;DHT22;5707;49.588;12.148;2023-08-17T02:18:20;15.70;99.90
11304;DHT22;5707;49.588;12.148;2023-08-17T02:20:46;15.70;99.90
11304;DHT22;5707;49.588;12.148;2023-08-17T02:23:11;15.70;99.90
11304;DHT22;5707;49.588;12.148;2023-08-17T02:25:40;15.70;99.90
11304;DHT22;5707;49.588;12.148;2023-08-17T02:28:06;15.70;99.90
11304;DHT22;5707;49.588;12.148;2023-08-17T02:30:31;15.70;99.90
11304;DHT22;5707;49.588;12.148;2023-08-17T02:32:57;15.60;99.90
11304;DHT22;5707;49.588;12.148;2023-08-17T02:35:23;15.60;99.90
11304;DHT22;5707;49.588;12.148;2023-08-17T02:37:48;15.60;99.90
11304;DHT22;5707;49.588;12.148;2023-08-17T02:40:14;15.60;99.90
11304;DHT22;5707;49.588;12.148;2023-08-17T02:42:39;15.70;99.90
11304;DHT22;5707;49.588;12.148;2023-08-17T02:45:06;15.90;99.90
11304;DHT22;5707;49.588;12.148;2023-08-17T02:47:32;16.00;99.90
11304;DHT22;5707;49.588;12.148;2023-08-17T02:49:58;16.10;99.90
11304;DHT22;5707;49.588;12.148;2023-08-17T02:52:23;16.20;99.90
11304;DHT22;5707;49.588;12.148;2023-08-17T02:54:49;16.20;99.90
11304;DHT22;5707;49.588;12.148;2023-08-17T02:57:15;16.30;99.90
11304;DHT22;5707;49.588;12.148;2023-08-17T02:59:40;16.40;99.90
11304;DHT22;5707;49.588;12.148;2023-08-17T03:02:06;16.40;99.90
11304;DHT22;5707;49.588;12.148;2023-08-17T03:04:31;16.40;99.90
11304;DHT22;5707;49.588;12.148;2023-08-17T03:06:58;16.40;99.90
11304;DHT22;5707;49.588;12.148;2023-08-17T03:09:23;16.40;99.90
11304;DHT22;5707;49.588;12.148;2023-08-17T03:11:49;16.40;99.90
11304;DHT22;5707;49.588;12.148;2023-08-17T03:14:14;16.40;99.90
11304;DHT22;5707;49.588;12.148;2023-08-17T03:16:40;16.40;99.90
11304;DHT22;5707;49.588;12.148;2023-08-17T03:19:05;16.40;99.90
11304;DHT22;5707;49.588;12.148;2023-08-17T03:21:33;16.40;99.90
11304;DHT22;5707;49.588;12.148;2023-08-17T03:23:59;16.30;99.90
11304;DHT22;5707;49.588;12.148;2023-08-17T03:26:24;16.30;99.90
11304;DHT22;5707;49.588;12.148;2023-08-17T03:28:50;16.20;99.90
11304;DHT22;5707;49.588;12.148;2023-08-17T03:31:15;16.10;99.90
11304;DHT22;5707;49.588;12.148;2023-08-17T03:33:41;16.00;99.90
11304;DHT22;5707;49.588;12.148;2023-08-17T03:36:07;15.90;99.90
11304;DHT22;5707;49.588;12.148;2023-08-17T03:38:32;15.90;99.90
11304;DHT22;5707;49.588;12.148;2023-08-17T03:40:58;15.90;99.90
11304;DHT22;5707;49.588;12.148;2023-08-17T03:43:23;15.80;99.90
11304;DHT22;5707;49.588;12.148;2023-08-17T03:45:50;15.70;99.90
11304;DHT22;5707;49.588;12.148;2023-08-17T03:48:15;15.60;99.90
11304;DHT22;5707;49.588;12.148;2023-08-17T03:50:41;15.60;99.90
11304;DHT22;5707;49.588;12.148;2023-08-17T03:53:06;15.60;99.90
11304;DHT22;5707;49.588;12.148;2023-08-17T03:55:32;15.60;99.90
11304;DHT22;5707;49.588;12.148;2023-08-17T03:57:57;15.60;99.90
11304;DHT22;5707;49.588;12.148;2023-08-17T04:00:23;15.60;99.90
11304;DHT22;5707;49.588;12.148;2023-08-17T04:02:48;15.60;99.90
11304;DHT22;5707;49.588;12.148;2023-08-17T04:05:14;15.60;99.90
11304;DHT22;5707;49.588;12.148;2023-08-17T04:07:40;15.60;99.90
11304;DHT22;5707;49.588;12.148;2023-08-17T04:10:06;15.60;99.90
11304;DHT22;5707;49.588;12.148;2023-08-17T04:12:31;15.60;99.90
11304;DHT22;5707;49.588;12.148;2023-08-17T04:14:57;15.50;99.90
11304;DHT22;5707;49.588;12.148;2023-08-17T04:17:23;15.50;99.90
11304;DHT22;5707;49.588;12.148;2023-08-17T04:19:48;15.50;99.90
11304;DHT22;5707;49.588;12.148;2023-08-17T04:22:14;15.60;99.90
11304;DHT22;5707;49.588;12.148;2023-08-17T04:24:39;15.60;99.90
11304;DHT22;5707;49.588;12.148;2023-08-17T04:27:05;15.70;99.90
11304;DHT22;5707;49.588;12.148;2023-08-17T04:29:31;15.70;99.90
11304;DHT22;5707;49.588;12.148;2023-08-17T04:31:57;15.80;99.90
11304;DHT22;5707;49.588;12.148;2023-08-17T04:34:23;15.90;99.90
11304;DHT22;5707;49.588;12.148;2023-08-17T04:36:49;16.00;99.90
11304;DHT22;5707;49.588;12.148;2023-08-17T04:39:14;16.00;99.90
11304;DHT22;5707;49.588;12.148;2023-08-17T04:41:40;16.10;99.90
11304;DHT22;5707;49.588;12.148;2023-08-17T04:44:06;16.20;99.90
11304;DHT22;5707;49.588;12.148;2023-08-17T04:46:31;16.30;99.90
11304;DHT22;5707;49.588;12.148;2023-08-17T04:48:57;16.50;99.90
11304;DHT22;5707;49.588;12.148;2023-08-17T04:51:22;16.70;99.90
11304;DHT22;5707;49.588;12.148;2023-08-17T04:53:48;17.00;99.90
11304;DHT22;5707;49.588;12.148;2023-08-17T04:56:13;17.40;99.90
11304;DHT22;5707;49.588;12.148;2023-08-17T04:58:39;17.70;99.90
11304;DHT22;5707;49.588;12.148;2023-08-17T05:01:04;18.40;99.90
11304;DHT22;5707;49.588;12.148;2023-08-17T05:03:30;18.80;99.90
11304;DHT22;5707;49.588;12.148;2023-08-17T05:05:56;19.10;99.90
11304;DHT22;5707;49.588;12.148;2023-08-17T05:08:22;19.20;99.90
11304;DHT22;5707;49.588;12.148;2023-08-17T05:10:48;19.20;99.90
11304;DHT22;5707;49.588;12.148;2023-08-17T05:13:14;19.00;99.90
11304;DHT22;5707;49.588;12.148;2023-08-17T05:15:39;18.80;99.90
11304;DHT22;5707;49.588;12.148;2023-08-17T05:18:05;18.70;99.90
11304;DHT22;5707;49.588;12.148;2023-08-17T05:20:30;18.80;99.90
11304;DHT22;5707;49.588;12.148;2023-08-17T05:22:56;18.90;99.90
11304;DHT22;5707;49.588;12.148;2023-08-17T05:25:21;19.10;99.90
11304;DHT22;5707;49.588;12.148;2023-08-17T05:27:48;19.10;99.90
11304;DHT22;5707;49.588;12.148;2023-08-17T05:30:14;19.00;99.90
11304;DHT22;5707;49.588;12.148;2023-08-17T05:32:40;19.00;99.90
11304;DHT22;5707;49.588;12.148;2023-08-17T05:35:06;19.00;99.90
11304;DHT22;5707;49.588;12.148;2023-08-17T05:37:31;19.10;99.90
11304;DHT22;5707;49.588;12.148;2023-08-17T05:39:57;19.00;99.90
11304;DHT22;5707;49.588;12.148;2023-08-17T05:42:23;18.90;99.90
11304;DHT22;5707;49.588;12.148;2023-08-17T05:44:49;18.90;99.90
11304;DHT22;5707;49.588;12.148;2023-08-17T05:47:14;19.00;99.90
11304;DHT22;5707;49.588;12.148;2023-08-17T05:49:43;18.90;99.90
11304;DHT22;5707;49.588;12.148;2023-08-17T05:52:08;19.00;99.90
11304;DHT22;5707;49.588;12.148;2023-08-17T05:54:34;19.10;99.90
11304;DHT22;5707;49.588;12.148;2023-08-17T05:56:59;19.20;99.90
11304;DHT22;5707;49.588;12.148;2023-08-17T05:59:25;19.30;99.90
11304;DHT22;5707;49.588;12.148;2023-08-17T06:01:50;19.40;99.90
11304;DHT22;5707;49.588;12.148;2023-08-17T06:04:16;19.50;99.90
11304;DHT22;5707;49.588;12.148;2023-08-17T06:06:42;19.60;99.90
11304;DHT22;5707;49.588;12.148;2023-08-17T06:09:07;19.70;99.90
11304;DHT22;5707;49.588;12.148;2023-08-17T06:11:34;19.80;99.90
11304;DHT22;5707;49.588;12.148;2023-08-17T06:13:59;20.00;99.90
11304;DHT22;5707;49.588;12.148;2023-08-17T06:16:25;20.10;99.90
11304;DHT22;5707;49.588;12.148;2023-08-17T06:18:50;20.20;99.90
11304;DHT22;5707;49.588;12.148;2023-08-17T06:21:16;20.30;99.90
11304;DHT22;5707;49.588;12.148;2023-08-17T06:23:41;20.40;99.90
11304;DHT22;5707;49.588;12.148;2023-08-17T06:26:07;20.50;99.90
11304;DHT22;5707;49.588;12.148;2023-08-17T06:28:33;20.50;99.90
11304;DHT22;5707;49.588;12.148;2023-08-17T06:30:59;20.60;99.90
11304;DHT22;5707;49.588;12.148;2023-08-17T06:33:24;20.80;99.90
11304;DHT22;5707;49.588;12.148;2023-08-17T06:35:50;21.00;99.90
11304;DHT22;5707;49.588;12.148;2023-08-17T06:38:16;21.20;99.90
11304;DHT22;5707;49.588;12.148;2023-08-17T06:40:41;21.30;99.90
11304;DHT22;5707;49.588;12.148;2023-08-17T06:43:07;21.40;99.90
11304;DHT22;5707;49.588;12.148;2023-08-17T06:45:34;21.60;99.90
11304;DHT22;5707;49.588;12.148;2023-08-17T06:47:59;21.90;99.90
11304;DHT22;5707;49.588;12.148;2023-08-17T06:50:25;22.20;99.90
11304;DHT22;5707;49.588;12.148;2023-08-17T06:52:52;22.40;99.90
11304;DHT22;5707;49.588;12.148;2023-08-17T06:55:18;22.70;99.90
11304;DHT22;5707;49.588;12.148;2023-08-17T06:57:44;23.00;99.90
11304;DHT22;5707;49.588;12.148;2023-08-17T07:00:10;23.10;99.90
11304;DHT22;5707;49.588;12.148;2023-08-17T07:02:39;23.30;99.90
11304;DHT22;5707;49.588;12.148;2023-08-17T07:05:05;23.50;99.90
11304;DHT22;5707;49.588;12.148;2023-08-17T07:07:30;23.70;99.90
11304;DHT22;5707;49.588;12.148;2023-08-17T07:09:59;23.90;99.90
11304;DHT22;5707;49.588;12.148;2023-08-17T07:12:25;24.10;99.90
11304;DHT22;5707;49.588;12.148;2023-08-17T07:14:50;24.50;99.90
11304;DHT22;5707;49.588;12.148;2023-08-17T07:17:16;24.70;99.90
11304;DHT22;5707;49.588;12.148;2023-08-17T07:19:42;24.70;99.90
11304;DHT22;5707;49.588;12.148;2023-08-17T07:22:07;24.70;99.90
11304;DHT22;5707;49.588;12.148;2023-08-17T07:24:33;24.70;99.90
11304;DHT22;5707;49.588;12.148;2023-08-17T07:26:59;24.80;99.90
11304;DHT22;5707;49.588;12.148;2023-08-17T07:29:24;24.90;99.90
11304;DHT22;5707;49.588;12.148;2023-08-17T07:31:50;24.70;99.90
11304;DHT22;5707;49.588;12.148;2023-08-17T07:34:15;24.70;99.90
11304;DHT22;5707;49.588;12.148;2023-08-17T07:36:41;24.50;99.90
11304;DHT22;5707;49.588;12.148;2023-08-17T07:39:06;24.40;99.90
11304;DHT22;5707;49.588;12.148;2023-08-17T07:41:32;24.40;99.90
11304;DHT22;5707;49.588;12.148;2023-08-17T07:43:58;24.30;99.90
11304;DHT22;5707;49.588;12.148;2023-08-17T07:46:24;24.30;99.90
11304;DHT22;5707;49.588;12.148;2023-08-17T07:48:49;24.20;99.90
11304;DHT22;5707;49.588;12.148;2023-08-17T07:51:15;24.10;99.90
11304;DHT22;5707;49.588;12.148;2023-08-17T07:53:40;23.90;99.90
11304;DHT22;5707;49.588;12.148;2023-08-17T07:56:06;23.90;99.90
11304;DHT22;5707;49.588;12.148;2023-08-17T07:58:32;24.00;99.90
11304;DHT22;5707;49.588;12.148;2023-08-17T08:00:57;24.20;99.90
11304;DHT22;5707;49.588;12.148;2023-08-17T08:03:23;24.40;99.90
11304;DHT22;5707;49.588;12.148;2023-08-17T08:05:48;24.40;99.90
11304;DHT22;5707;49.588;12.148;2023-08-17T08:08:14;24.50;99.90
11304;DHT22;5707;49.588;12.148;2023-08-17T08:10:40;24.60;99.90
11304;DHT22;5707;49.588;12.148;2023-08-17T08:13:06;24.70;99.90
11304;DHT22;5707;49.588;12.148;2023-08-17T08:15:33;24.90;99.90
11304;DHT22;5707;49.588;12.148;2023-08-17T08:17:58;24.90;99.90
11304;DHT22;5707;49.588;12.148;2023-08-17T08:20:24;25.00;99.90
11304;DHT22;5707;49.588;12.148;2023-08-17T08:22:49;25.20;99.90
11304;DHT22;5707;49.588;12.148;2023-08-17T08:25:15;25.20;99.90
11304;DHT22;5707;49.588;12.148;2023-08-17T08:27:41;25.20;99.90
11304;DHT22;5707;49.588;12.148;2023-08-17T08:30:06;25.20;99.90
11304;DHT22;5707;49.588;12.148;2023-08-17T08:32:32;25.30;99.90
11304;DHT22;5707;49.588;12.148;2023-08-17T08:34:58;25.30;99.90
11304;DHT22;5707;49.588;12.148;2023-08-17T08:37:24;25.30;99.90
11304;DHT22;5707;49.588;12.148;2023-08-17T08:39:53;25.40;99.90
11304;DHT22;5707;49.588;12.148;2023-08-17T08:42:20;25.60;99.90
11304;DHT22;5707;49.588;12.148;2023-08-17T08:44:46;25.70;99.90
11304;DHT22;5707;49.588;12.148;2023-08-17T08:47:13;25.70;99.90
11304;DHT22;5707;49.588;12.148;2023-08-17T08:49:57;25.70;99.90
11304;DHT22;5707;49.588;12.148;2023-08-17T08:52:50;25.70;99.90
11304;DHT22;5707;49.588;12.148;2023-08-17T08:55:17;25.70;99.90
11304;DHT22;5707;49.588;12.148;2023-08-17T08:57:43;25.70;99.90
11304;DHT22;5707;49.588;12.148;2023-08-17T09:00:11;25.80;99.90
11304;DHT22;5707;49.588;12.148;2023-08-17T09:02:38;25.90;99.90
11304;DHT22;5707;49.588;12.148;2023-08-17T09:05:06;26.00;99.90
11304;DHT22;5707;49.588;12.148;2023-08-17T09:07:33;26.00;99.90
11304;DHT22;5707;49.588;12.148;2023-08-17T09:09:58;26.10;99.90
11304;DHT22;5707;49.588;12.148;2023-08-17T09:12:25;26.10;99.90
11304;DHT22;5707;49.588;12.148;2023-08-17T09:14:50;26.30;99.90
11304;DHT22;5707;49.588;12.148;2023-08-17T09:17:25;26.30;99.90
11304;DHT22;5707;49.588;12.148;2023-08-17T09:19:51;26.40;99.90
11304;DHT22;5707;49.588;12.148;2023-08-17T09:22:37;26.40;99.90
11304;DHT22;5707;49.588;12.148;2023-08-17T09:25:04;26.40;99.90
11304;DHT22;5707;49.588;12.148;2023-08-17T09:27:31;26.40;99.90
11304;DHT22;5707;49.588;12.148;2023-08-17T09:30:04;26.50;99.90
11304;DHT22;5707;49.588;12.148;2023-08-17T09:32:33;26.40;99.90
11304;DHT22;5707;49.588;12.148;2023-08-17T09:35:05;26.30;99.90
11304;DHT22;5707;49.588;12.148;2023-08-17T09:37:32;26.30;99.90
11304;DHT22;5707;49.588;12.148;2023-08-17T09:39:58;26.20;99.90
11304;DHT22;5707;49.588;12.148;2023-08-17T09:42:23;26.20;99.90
11304;DHT22;5707;49.588;12.148;2023-08-17T09:44:51;26.30;99.90
11304;DHT22;5707;49.588;12.148;2023-08-17T09:47:17;26.40;99.90
11304;DHT22;5707;49.588;12.148;2023-08-17T09:49:50;26.40;99.90
11304;DHT22;5707;49.588;12.148;2023-08-17T09:52:17;26.40;99.90
11304;DHT22;5707;49.588;12.148;2023-08-17T09:54:43;26.50;99.90
11304;DHT22;5707;49.588;12.148;2023-08-17T09:57:10;26.60;99.90
11304;DHT22;5707;49.588;12.148;2023-08-17T09:59:36;26.70;99.90
11304;DHT22;5707;49.588;12.148;2023-08-17T10:02:03;26.90;99.90
11304;DHT22;5707;49.588;12.148;2023-08-17T10:04:32;27.00;99.90
11304;DHT22;5707;49.588;12.148;2023-08-17T10:07:03;27.00;99.90
11304;DHT22;5707;49.588;12.148;2023-08-17T10:09:40;27.00;99.90
11304;DHT22;5707;49.588;12.148;2023-08-17T10:12:10;27.00;99.90
11304;DHT22;5707;49.588;12.148;2023-08-17T10:14:40;27.00;99.90
11304;DHT22;5707;49.588;12.148;2023-08-17T10:17:13;27.10;99.90
11304;DHT22;5707;49.588;12.148;2023-08-17T10:19:47;27.20;99.90
11304;DHT22;5707;49.588;12.148;2023-08-17T10:25:02;27.40;99.90
11304;DHT22;5707;49.588;12.148;2023-08-17T10:27:29;27.60;99.90
11304;DHT22;5707;49.588;12.148;2023-08-17T10:29:55;27.70;99.90
11304;DHT22;5707;49.588;12.148;2023-08-17T10:32:22;27.80;99.90
11304;DHT22;5707;49.588;12.148;2023-08-17T10:34:50;27.90;99.90
11304;DHT22;5707;49.588;12.148;2023-08-17T10:37:18;27.80;99.90
11304;DHT22;5707;49.588;12.148;2023-08-17T10:39:48;27.80;99.90
11304;DHT22;5707;49.588;12.148;2023-08-17T10:42:14;27.80;99.90
11304;DHT22;5707;49.588;12.148;2023-08-17T10:47:38;27.80;99.90
11304;DHT22;5707;49.588;12.148;2023-08-17T10:50:21;27.80;99.90
11304;DHT22;5707;49.588;12.148;2023-08-17T10:52:49;27.90;99.90
11304;DHT22;5707;49.588;12.148;2023-08-17T10:55:15;27.90;99.90
11304;DHT22;5707;49.588;12.148;2023-08-17T10:57:41;27.90;99.90
11304;DHT22;5707;49.588;12.148;2023-08-17T11:02:52;28.00;99.90
11304;DHT22;5707;49.588;12.148;2023-08-17T11:05:35;28.00;99.90
11304;DHT22;5707;49.588;12.148;2023-08-17T11:08:01;28.10;99.90
11304;DHT22;5707;49.588;12.148;2023-08-17T11:10:28;28.30;99.90
11304;DHT22;5707;49.588;12.148;2023-08-17T11:12:55;28.30;99.90
11304;DHT22;5707;49.588;12.148;2023-08-17T11:15:25;28.40;99.90
11304;DHT22;5707;49.588;12.148;2023-08-17T11:17:51;28.30;99.90
11304;DHT22;5707;49.588;12.148;2023-08-17T11:20:17;28.20;99.90
11304;DHT22;5707;49.588;12.148;2023-08-17T11:22:43;28.10;99.90
11304;DHT22;5707;49.588;12.148;2023-08-17T11:25:09;28.20;99.90
11304;DHT22;5707;49.588;12.148;2023-08-17T11:27:35;28.20;99.90
11304;DHT22;5707;49.588;12.148;2023-08-17T11:30:02;28.10;99.90
11304;DHT22;5707;49.588;12.148;2023-08-17T11:32:28;28.00;99.90
11304;DHT22;5707;49.588;12.148;2023-08-17T11:34:54;28.20;99.90
11304;DHT22;5707;49.588;12.148;2023-08-17T11:37:21;28.20;99.90
11304;DHT22;5707;49.588;12.148;2023-08-17T11:39:46;28.20;99.90
11304;DHT22;5707;49.588;12.148;2023-08-17T11:42:12;28.30;99.90
11304;DHT22;5707;49.588;12.148;2023-08-17T11:44:38;28.30;99.90
11304;DHT22;5707;49.588;12.148;2023-08-17T11:47:03;28.40;99.90
11304;DHT22;5707;49.588;12.148;2023-08-17T11:49:30;28.60;99.90
11304;DHT22;5707;49.588;12.148;2023-08-17T11:51:56;28.70;99.90
11304;DHT22;5707;49.588;12.148;2023-08-17T11:54:22;28.80;99.90
11304;DHT22;5707;49.588;12.148;2023-08-17T11:56:48;28.90;99.90
11304;DHT22;5707;49.588;12.148;2023-08-17T11:59:13;29.00;99.90
11304;DHT22;5707;49.588;12.148;2023-08-17T12:01:39;29.00;99.90
11304;DHT22;5707;49.588;12.148;2023-08-17T12:04:06;28.90;99.90
11304;DHT22;5707;49.588;12.148;2023-08-17T12:06:31;28.90;99.90
11304;DHT22;5707;49.588;12.148;2023-08-17T12:08:57;29.00;99.90
11304;DHT22;5707;49.588;12.148;2023-08-17T12:11:26;29.00;99.40
11304;DHT22;5707;49.588;12.148;2023-08-17T12:13:52;29.10;99.50
11304;DHT22;5707;49.588;12.148;2023-08-17T12:16:19;29.20;99.20
11304;DHT22;5707;49.588;12.148;2023-08-17T12:18:52;29.40;97.00
11304;DHT22;5707;49.588;12.148;2023-08-17T12:21:21;29.50;91.20
11304;DHT22;5707;49.588;12.148;2023-08-17T12:23:47;29.50;88.50
11304;DHT22;5707;49.588;12.148;2023-08-17T12:26:20;29.60;89.30
11304;DHT22;5707;49.588;12.148;2023-08-17T12:28:46;29.60;86.80
11304;DHT22;5707;49.588;12.148;2023-08-17T12:31:11;29.40;86.40
11304;DHT22;5707;49.588;12.148;2023-08-17T12:33:37;29.20;87.00
11304;DHT22;5707;49.588;12.148;2023-08-17T12:36:03;28.90;87.10
11304;DHT22;5707;49.588;12.148;2023-08-17T12:38:29;28.60;93.20
11304;DHT22;5707;49.588;12.148;2023-08-17T12:40:55;28.50;92.60
11304;DHT22;5707;49.588;12.148;2023-08-17T12:43:20;28.70;92.60
11304;DHT22;5707;49.588;12.148;2023-08-17T12:45:46;29.10;90.30
11304;DHT22;5707;49.588;12.148;2023-08-17T12:48:12;29.40;90.00
11304;DHT22;5707;49.588;12.148;2023-08-17T12:50:37;29.70;84.30
11304;DHT22;5707;49.588;12.148;2023-08-17T12:53:03;29.90;80.30
11304;DHT22;5707;49.588;12.148;2023-08-17T12:55:29;30.10;81.30
11304;DHT22;5707;49.588;12.148;2023-08-17T12:57:54;30.20;83.00
11304;DHT22;5707;49.588;12.148;2023-08-17T13:00:20;30.30;79.10
11304;DHT22;5707;49.588;12.148;2023-08-17T13:02:45;30.40;79.50
11304;DHT22;5707;49.588;12.148;2023-08-17T13:05:14;30.50;76.90
11304;DHT22;5707;49.588;12.148;2023-08-17T13:07:40;30.70;78.30
11304;DHT22;5707;49.588;12.148;2023-08-17T13:10:05;30.80;80.00
11304;DHT22;5707;49.588;12.148;2023-08-17T13:12:31;31.00;87.00
11304;DHT22;5707;49.588;12.148;2023-08-17T13:14:56;31.00;77.50
11304;DHT22;5707;49.588;12.148;2023-08-17T13:17:22;31.00;71.30
11304;DHT22;5707;49.588;12.148;2023-08-17T13:19:48;30.90;74.30
11304;DHT22;5707;49.588;12.148;2023-08-17T13:22:13;30.90;75.00
11304;DHT22;5707;49.588;12.148;2023-08-17T13:24:39;31.00;73.40
11304;DHT22;5707;49.588;12.148;2023-08-17T13:27:05;31.10;69.90
11304;DHT22;5707;49.588;12.148;2023-08-17T13:29:31;30.90;68.90
11304;DHT22;5707;49.588;12.148;2023-08-17T13:31:56;30.90;73.20
11304;DHT22;5707;49.588;12.148;2023-08-17T13:34:22;31.10;73.50
11304;DHT22;5707;49.588;12.148;2023-08-17T13:36:47;31.10;76.00
11304;DHT22;5707;49.588;12.148;2023-08-17T13:39:13;31.20;70.30
11304;DHT22;5707;49.588;12.148;2023-08-17T13:41:38;31.20;69.10
11304;DHT22;5707;49.588;12.148;2023-08-17T13:44:05;31.10;77.50
11304;DHT22;5707;49.588;12.148;2023-08-17T13:46:31;31.10;68.40
11304;DHT22;5707;49.588;12.148;2023-08-17T13:48:57;31.30;72.70
11304;DHT22;5707;49.588;12.148;2023-08-17T13:51:22;31.40;70.20
11304;DHT22;5707;49.588;12.148;2023-08-17T13:54:13;31.50;74.00
11304;DHT22;5707;49.588;12.148;2023-08-17T13:56:38;31.60;65.90
11304;DHT22;5707;49.588;12.148;2023-08-17T13:59:04;31.60;70.70
11304;DHT22;5707;49.588;12.148;2023-08-17T14:01:29;31.60;63.80
11304;DHT22;5707;49.588;12.148;2023-08-17T14:03:55;31.60;62.10
11304;DHT22;5707;49.588;12.148;2023-08-17T14:06:20;31.70;62.50
11304;DHT22;5707;49.588;12.148;2023-08-17T14:08:46;31.70;60.70
11304;DHT22;5707;49.588;12.148;2023-08-17T14:11:11;31.80;61.20
11304;DHT22;5707;49.588;12.148;2023-08-17T14:13:37;32.00;62.20
11304;DHT22;5707;49.588;12.148;2023-08-17T14:16:04;32.00;62.60
11304;DHT22;5707;49.588;12.148;2023-08-17T14:18:30;32.00;63.40
11304;DHT22;5707;49.588;12.148;2023-08-17T14:20:55;32.00;62.60
11304;DHT22;5707;49.588;12.148;2023-08-17T14:23:21;32.30;67.90
11304;DHT22;5707;49.588;12.148;2023-08-17T14:25:47;32.40;58.20
11304;DHT22;5707;49.588;12.148;2023-08-17T14:28:12;32.50;56.80
11304;DHT22;5707;49.588;12.148;2023-08-17T14:30:38;32.40;59.00
11304;DHT22;5707;49.588;12.148;2023-08-17T14:33:04;32.60;56.20
11304;DHT22;5707;49.588;12.148;2023-08-17T14:35:29;32.80;57.90
11304;DHT22;5707;49.588;12.148;2023-08-17T14:37:55;32.90;55.30
11304;DHT22;5707;49.588;12.148;2023-08-17T14:40:23;33.00;55.00
11304;DHT22;5707;49.588;12.148;2023-08-17T14:42:49;33.00;52.90
11304;DHT22;5707;49.588;12.148;2023-08-17T14:45:14;33.20;54.40
11304;DHT22;5707;49.588;12.148;2023-08-17T14:47:40;33.20;54.10
11304;DHT22;5707;49.588;12.148;2023-08-17T14:50:06;33.30;53.00
11304;DHT22;5707;49.588;12.148;2023-08-17T14:52:32;33.30;56.90
11304;DHT22;5707;49.588;12.148;2023-08-17T14:54:57;33.20;58.60
11304;DHT22;5707;49.588;12.148;2023-08-17T14:57:23;33.00;60.30
11304;DHT22;5707;49.588;12.148;2023-08-17T14:59:48;33.00;57.30
11304;DHT22;5707;49.588;12.148;2023-08-17T15:02:14;33.10;58.40
11304;DHT22;5707;49.588;12.148;2023-08-17T15:04:41;33.40;58.70
11304;DHT22;5707;49.588;12.148;2023-08-17T15:07:07;33.50;59.60
11304;DHT22;5707;49.588;12.148;2023-08-17T15:09:37;33.60;59.50
11304;DHT22;5707;49.588;12.148;2023-08-17T15:12:03;33.50;60.10
11304;DHT22;5707;49.588;12.148;2023-08-17T15:14:29;33.40;59.30
11304;DHT22;5707;49.588;12.148;2023-08-17T15:16:55;33.00;61.30
11304;DHT22;5707;49.588;12.148;2023-08-17T15:19:20;32.30;60.60
11304;DHT22;5707;49.588;12.148;2023-08-17T15:21:46;31.80;62.00
11304;DHT22;5707;49.588;12.148;2023-08-17T15:24:11;31.40;65.20
11304;DHT22;5707;49.588;12.148;2023-08-17T15:26:37;31.30;67.10
11304;DHT22;5707;49.588;12.148;2023-08-17T15:29:03;31.10;67.20
11304;DHT22;5707;49.588;12.148;2023-08-17T15:31:28;30.90;67.70
11304;DHT22;5707;49.588;12.148;2023-08-17T15:33:54;30.60;67.60
11304;DHT22;5707;49.588;12.148;2023-08-17T15:36:19;30.60;68.80